createdAt,value
2023-01-17T00:03:56.064Z,97714.16
2023-01-17T00:09:17.668Z,97702.58
2023-01-17T00:14:20.780Z,97694.27
2023-01-17T00:19:42.626Z,97694.66
2023-01-17T00:25:04.470Z,97687.05
2023-01-17T00:30:08.335Z,97681.17
2023-01-17T00:35:11.300Z,97675.67
2023-01-17T00:40:14.417Z,97670.70
2023-01-17T00:45:36.266Z,97654.42
2023-01-17T00:50:58.110Z,97647.98
2023-01-17T00:56:21.393Z,97633.34
2023-01-17T01:01:43.061Z,97623.03
2023-01-17T01:07:04.673Z,97609.23
2023-01-17T01:12:26.316Z,97595.71
2023-01-17T01:17:47.754Z,97588.36
2023-01-17T01:23:09.092Z,97582.52
2023-01-17T01:28:33.603Z,97571.48
2023-01-17T01:33:36.607Z,97556.52
2023-01-17T01:38:40.042Z,97546.00
2023-01-17T01:43:50.007Z,97537.21
2023-01-17T01:48:58.855Z,97521.70
2023-01-17T01:54:12.294Z,97516.73
2023-01-17T01:59:19.554Z,97500.53
2023-01-17T02:04:23.538Z,97491.48
2023-01-17T02:09:27.913Z,97477.05
2023-01-17T02:14:31.070Z,97472.95
2023-01-17T02:20:07.358Z,97478.71
2023-01-17T02:25:28.899Z,97477.88
2023-01-17T02:30:42.664Z,97483.13
2023-01-17T02:36:16.809Z,97482.29
2023-01-17T02:41:25.112Z,97478.05
2023-01-17T02:46:28.031Z,97470.47
2023-01-17T02:51:45.184Z,97470.14
2023-01-17T02:57:03.643Z,97476.83
2023-01-17T03:02:10.510Z,97471.98
2023-01-17T03:07:17.716Z,97454.73
2023-01-17T03:12:21.743Z,97447.85
2023-01-17T03:17:29.287Z,97437.75
2023-01-17T03:22:32.390Z,97427.77
2023-01-17T03:27:35.407Z,97416.98
2023-01-17T03:32:38.404Z,97412.08
2023-01-17T03:37:41.412Z,97406.64
2023-01-17T03:42:44.528Z,97403.80
2023-01-17T03:47:47.420Z,97387.38
2023-01-17T03:52:51.357Z,97390.42
2023-01-17T03:57:54.252Z,97389.16
2023-01-17T04:02:57.259Z,97385.17
2023-01-17T04:08:00.278Z,97383.89
2023-01-17T04:13:03.271Z,97364.20
2023-01-17T04:18:07.034Z,97350.35
2023-01-17T04:23:10.631Z,97345.79
2023-01-17T04:28:14.032Z,97361.38
2023-01-17T04:33:17.446Z,97362.25
2023-01-17T04:38:20.768Z,97365.69
2023-01-17T04:43:23.765Z,97372.02
2023-01-17T04:48:27.418Z,97369.88
2023-01-17T04:53:30.616Z,97367.22
2023-01-17T04:58:33.915Z,97360.10
2023-01-17T05:03:36.933Z,97351.80
2023-01-17T05:08:40.028Z,97343.17
2023-01-17T05:13:43.138Z,97338.52
2023-01-17T05:18:46.156Z,97337.13
2023-01-17T05:23:49.360Z,97340.15
2023-01-17T05:28:52.357Z,97334.98
2023-01-17T05:33:55.480Z,97328.92
2023-01-17T05:38:58.374Z,97322.21
2023-01-17T05:44:01.377Z,97325.83
2023-01-17T05:49:04.596Z,97332.68
2023-01-17T05:54:07.596Z,97326.94
2023-01-17T05:59:13.953Z,97327.72
2023-01-17T06:04:17.383Z,97336.06
2023-01-17T06:09:20.405Z,97338.68
2023-01-17T06:14:23.512Z,97340.27
2023-01-17T06:19:26.518Z,97337.99
2023-01-17T06:24:30.552Z,97340.55
2023-01-17T06:29:33.560Z,97341.73
2023-01-17T06:34:37.902Z,97334.99
2023-01-17T06:39:41.107Z,97339.29
2023-01-17T06:44:44.110Z,97351.16
2023-01-17T06:49:47.220Z,97350.74
2023-01-17T06:54:50.125Z,97349.13
2023-01-17T06:59:53.314Z,97359.04
2023-01-17T07:04:56.339Z,97362.38
2023-01-17T07:10:00.584Z,97365.23
2023-01-17T07:15:04.160Z,97358.98
2023-01-17T07:20:08.261Z,97361.05
2023-01-17T07:25:11.240Z,97353.64
2023-01-17T07:30:14.838Z,97353.98
2023-01-17T07:35:18.399Z,97360.52
2023-01-17T07:40:22.722Z,97365.70
2023-01-17T07:45:25.623Z,97363.15
2023-01-17T07:50:28.726Z,97362.27
2023-01-17T07:55:31.840Z,97354.44
2023-01-17T08:00:34.839Z,97353.70
2023-01-17T08:05:37.858Z,97350.53
2023-01-17T08:10:40.852Z,97348.83
2023-01-17T08:15:43.857Z,97345.52
2023-01-17T08:20:46.965Z,97344.95
2023-01-17T08:25:50.180Z,97352.35
2023-01-17T08:30:53.185Z,97357.85
2023-01-17T08:35:56.393Z,97368.77
2023-01-17T08:41:02.986Z,97369.51
2023-01-17T08:46:06.595Z,97365.06
2023-01-17T08:51:09.979Z,97367.95
2023-01-17T08:56:13.132Z,97364.61
2023-01-17T09:01:16.512Z,97362.17
2023-01-17T09:06:19.967Z,97366.73
2023-01-17T09:11:22.866Z,97372.33
2023-01-17T09:16:26.320Z,97384.77
2023-01-17T09:21:29.699Z,97398.84
2023-01-17T09:26:32.707Z,97402.39
2023-01-17T09:31:35.934Z,97398.95
2023-01-17T09:36:39.022Z,97389.83
2023-01-17T09:42:00.567Z,97392.84
2023-01-17T09:47:15.796Z,97390.67
2023-01-17T09:52:23.473Z,97374.56
2023-01-17T09:57:59.727Z,97369.65
2023-01-17T10:03:24.146Z,97366.02
2023-01-17T10:09:18.751Z,97362.96
2023-01-17T10:14:40.840Z,97360.62
2023-01-17T10:20:12.014Z,97361.50
2023-01-17T10:25:43.089Z,97357.16
2023-01-17T10:30:58.391Z,97359.38
2023-01-17T10:36:05.767Z,97362.09
2023-01-17T10:41:24.445Z,97368.39
2023-01-17T10:46:56.433Z,97379.08
2023-01-17T10:52:13.468Z,97382.46
2023-01-17T10:57:21.377Z,97376.79
2023-01-17T11:02:30.030Z,97378.16
2023-01-17T11:07:33.140Z,97383.23
2023-01-17T11:12:47.282Z,97384.89
2023-01-17T11:18:15.105Z,97387.35
2023-01-17T11:23:21.483Z,97379.88
2023-01-17T11:28:33.147Z,97376.32
2023-01-17T11:33:55.876Z,97369.31
2023-01-17T11:39:04.778Z,97364.68
2023-01-17T11:44:26.451Z,97366.16
2023-01-17T11:49:29.552Z,97371.36
2023-01-17T11:54:39.246Z,97370.31
2023-01-17T11:59:46.044Z,97379.27
2023-01-17T12:04:52.004Z,97380.10
2023-01-17T12:10:19.875Z,97376.19
2023-01-17T12:15:34.146Z,97374.61
2023-01-17T12:20:51.291Z,97373.82
2023-01-17T12:26:19.888Z,97377.77
2023-01-17T12:31:36.974Z,97376.00
2023-01-17T12:36:49.711Z,97375.42
2023-01-17T12:42:00.006Z,97379.60
2023-01-17T12:47:05.927Z,97396.86
2023-01-17T12:52:29.812Z,97397.48
2023-01-17T12:57:39.370Z,97401.36
2023-01-17T13:02:54.363Z,97403.36
2023-01-17T13:08:12.827Z,97413.09
2023-01-17T13:13:24.329Z,97423.29
2023-01-17T13:18:30.020Z,97433.42
2023-01-17T13:24:07.965Z,97436.11
2023-01-17T13:29:22.921Z,97448.91
2023-01-17T13:34:41.994Z,97453.02
2023-01-17T13:40:22.701Z,97461.89
2023-01-17T13:45:31.913Z,97468.48
2023-01-17T13:50:40.992Z,97468.08
2023-01-17T13:55:46.870Z,97474.36
2023-01-17T14:00:50.875Z,97486.28
2023-01-17T14:05:57.579Z,97489.70
2023-01-17T14:11:09.987Z,97489.84
2023-01-17T14:16:22.006Z,97492.61
2023-01-17T14:21:26.979Z,97489.61
2023-01-17T14:26:32.869Z,97489.11
2023-01-17T14:31:36.082Z,97499.66
2023-01-17T14:36:39.738Z,97505.55
2023-01-17T14:41:43.612Z,97510.39
2023-01-17T14:46:49.063Z,97520.92
2023-01-17T14:52:02.837Z,97529.53
2023-01-17T14:57:35.129Z,97534.35
2023-01-17T15:02:43.904Z,97540.87
2023-01-17T15:07:53.027Z,97549.20
2023-01-17T15:12:57.938Z,97556.73
2023-01-17T15:18:20.951Z,97563.55
2023-01-17T15:23:30.046Z,97578.62
2023-01-17T15:28:34.725Z,97588.67
2023-01-17T15:33:41.250Z,97594.86
2023-01-17T15:38:52.942Z,97601.65
2023-01-17T15:43:58.710Z,97611.28
2023-01-17T15:49:31.316Z,97614.55
2023-01-17T15:54:50.564Z,97614.05
2023-01-17T16:00:16.046Z,97623.95
2023-01-17T16:05:22.312Z,97624.66
2023-01-17T16:10:28.936Z,97620.89
2023-01-17T16:15:32.456Z,97617.94
2023-01-17T16:20:39.339Z,97627.41
2023-01-17T16:25:42.430Z,97631.63
2023-01-17T16:30:46.366Z,97633.30
2023-01-17T16:35:51.439Z,97641.13
2023-01-17T16:40:54.625Z,97654.46
2023-01-17T16:45:58.190Z,97658.96
2023-01-17T16:51:06.167Z,97659.55
2023-01-17T16:56:13.745Z,97661.48
2023-01-17T17:01:20.905Z,97659.55
2023-01-17T17:06:24.096Z,97673.80
2023-01-17T17:11:27.102Z,97681.83
2023-01-17T17:16:31.004Z,97688.55
2023-01-17T17:21:37.004Z,97694.39
2023-01-17T17:26:41.158Z,97693.47
2023-01-17T17:31:44.354Z,97691.92
2023-01-17T17:36:47.463Z,97699.33
2023-01-17T17:41:50.465Z,97706.18
2023-01-17T17:46:53.675Z,97705.20
2023-01-17T17:52:04.655Z,97714.41
2023-01-17T17:57:07.777Z,97712.83
2023-01-17T18:02:11.344Z,97711.95
2023-01-17T18:07:15.024Z,97707.14
2023-01-17T18:12:18.131Z,97702.32
2023-01-17T18:17:21.083Z,97699.59
2023-01-17T18:22:24.578Z,97698.91
2023-01-17T18:27:27.563Z,97706.02
2023-01-17T18:32:30.662Z,97710.34
2023-01-17T18:37:34.191Z,97718.92
2023-01-17T18:42:37.395Z,97726.73
2023-01-17T18:47:40.325Z,97732.83
2023-01-17T18:52:43.301Z,97745.50
2023-01-17T18:57:46.314Z,97753.61
2023-01-17T19:02:49.316Z,97765.93
2023-01-17T19:07:52.717Z,97764.00
2023-01-17T19:12:55.844Z,97763.00
2023-01-17T19:17:58.958Z,97769.41
2023-01-17T19:23:02.057Z,97779.58
2023-01-17T19:28:05.268Z,97791.34
2023-01-17T19:33:08.283Z,97791.93
2023-01-17T19:38:11.288Z,97788.20
2023-01-17T19:43:14.293Z,97797.33
2023-01-17T19:48:17.297Z,97804.56
2023-01-17T19:53:21.814Z,97807.82
2023-01-17T19:58:24.748Z,97809.58
2023-01-17T20:03:28.270Z,97808.41
2023-01-17T20:08:31.373Z,97817.80
2023-01-17T20:13:34.585Z,97831.95
2023-01-17T20:18:38.619Z,97846.99
2023-01-17T20:23:43.189Z,97857.89
2023-01-17T20:28:47.922Z,97868.72
2023-01-17T20:33:53.376Z,97876.98
2023-01-17T20:38:57.462Z,97888.45
2023-01-17T20:44:02.466Z,97906.80
2023-01-17T20:49:07.821Z,97926.08
2023-01-17T20:54:14.420Z,97936.56
2023-01-17T20:59:20.392Z,97938.48
2023-01-17T21:04:26.098Z,97946.91
2023-01-17T21:09:29.159Z,97956.63
2023-01-17T21:14:32.313Z,97969.03
2023-01-17T21:19:36.711Z,97965.25
2023-01-17T21:24:39.716Z,97969.11
2023-01-17T21:29:42.818Z,97962.77
2023-01-17T21:34:46.240Z,97970.47
2023-01-17T21:39:54.893Z,97982.67
2023-01-17T21:44:57.985Z,97985.61
2023-01-17T21:50:01.212Z,97982.63
2023-01-17T21:55:23.451Z,97980.70
2023-01-17T22:00:26.454Z,97978.04
2023-01-17T22:05:29.676Z,97983.11
2023-01-17T22:10:33.401Z,97990.33
2023-01-17T22:15:36.657Z,97995.77
2023-01-17T22:20:41.414Z,97994.94
2023-01-17T22:25:44.466Z,97998.91
2023-01-17T22:30:47.685Z,98006.29
2023-01-17T22:35:58.587Z,98008.88
2023-01-17T22:41:09.776Z,98013.73
2023-01-17T22:46:15.470Z,98010.89
2023-01-17T22:51:20.509Z,98009.58
2023-01-17T22:56:28.718Z,98014.64
2023-01-17T23:01:33.067Z,98010.44
2023-01-17T23:06:39.264Z,98022.69
2023-01-17T23:11:50.041Z,98023.98
2023-01-17T23:17:14.123Z,98023.73
2023-01-17T23:22:29.188Z,98029.09
2023-01-17T23:27:51.776Z,98023.98
2023-01-17T23:33:00.119Z,98021.84
2023-01-17T23:38:22.367Z,98026.34
2023-01-17T23:43:25.579Z,98024.19
2023-01-17T23:48:29.174Z,98029.41
2023-01-17T23:53:32.228Z,98027.59
2023-01-17T23:58:35.314Z,98027.11
